Time;durP1;ratioP1;P1;durP2;ratioP2;P2;SDS_P1;SDS_P2;PMS_P1;PMS_P2;Temp;Humidity;BMP_temperature;BMP_pressure;BME280_temperature;BME280_humidity;BME280_pressure;Samples;Min_cycle;Max_cycle;Signal;HPM_P1;HPM_P2
2020/12/31 00:01:38;;;;;;;27.20;19.83;;;3.40;99.90;;;;;;4162616;28;20026;-72
2020/12/31 00:03:39;;;;;;;32.22;20.13;;;3.40;99.90;;;;;;4179324;28;20496;-73
2020/12/31 00:05:39;;;;;;;31.25;20.30;;;3.30;99.90;;;;;;4179017;28;20365;-74
2020/12/31 00:07:40;;;;;;;30.95;20.48;;;3.30;99.90;;;;;;4161179;28;20072;-72
2020/12/31 00:09:40;;;;;;;30.10;20.35;;;3.40;99.90;;;;;;4178906;28;20037;-72
2020/12/31 00:11:41;;;;;;;29.00;19.25;;;3.40;99.90;;;;;;4159710;28;20034;-72
2020/12/31 00:13:42;;;;;;;29.40;20.35;;;3.40;99.90;;;;;;4176829;28;20434;-74
2020/12/31 00:15:42;;;;;;;30.40;20.20;;;3.30;99.90;;;;;;4155673;28;20030;-72
2020/12/31 00:17:43;;;;;;;32.92;21.13;;;3.30;99.90;;;;;;4176963;28;20037;-71
2020/12/31 00:19:43;;;;;;;28.30;19.58;;;3.30;99.90;;;;;;4178328;28;20029;-72
2020/12/31 00:21:44;;;;;;;30.48;19.30;;;3.30;99.90;;;;;;4178521;28;20041;-73
2020/12/31 00:23:44;;;;;;;29.92;17.77;;;3.40;99.90;;;;;;4178506;28;20021;-72
2020/12/31 00:25:50;;;;;;;26.08;19.10;;;3.60;99.90;;;;;;4155124;28;20029;-72
2020/12/31 00:27:51;;;;;;;27.20;18.77;;;3.40;99.90;;;;;;4175965;28;20029;-73
2020/12/31 00:29:51;;;;;;;27.30;18.98;;;3.40;99.90;;;;;;4178610;28;20514;-73
2020/12/31 00:31:52;;;;;;;35.00;19.40;;;3.40;99.90;;;;;;4178995;28;20021;-73
2020/12/31 00:33:52;;;;;;;33.35;19.42;;;3.40;99.90;;;;;;4162204;28;20037;-73
2020/12/31 00:35:55;;;;;;;26.35;17.77;;;3.50;99.90;;;;;;4162229;28;20385;-72
2020/12/31 00:37:56;;;;;;;25.83;17.67;;;3.50;99.90;;;;;;4177663;28;20079;-73
2020/12/31 00:39:57;;;;;;;29.08;18.00;;;3.50;99.90;;;;;;4160123;28;20022;-72
2020/12/31 00:41:57;;;;;;;31.85;18.40;;;3.40;99.90;;;;;;4177991;28;20029;-72
2020/12/31 00:43:58;;;;;;;26.88;18.75;;;3.40;99.90;;;;;;4178615;28;20503;-72
2020/12/31 00:45:58;;;;;;;26.45;18.17;;;3.40;99.90;;;;;;4178214;28;20063;-73
2020/12/31 00:47:59;;;;;;;26.55;17.38;;;3.40;99.90;;;;;;4178746;28;20103;-73
2020/12/31 00:49:59;;;;;;;26.65;17.10;;;3.40;99.90;;;;;;4160776;28;20061;-72
2020/12/31 00:52:00;;;;;;;31.25;18.00;;;3.50;99.90;;;;;;4178093;28;20048;-73
2020/12/31 00:54:01;;;;;;;33.53;19.63;;;3.50;99.90;;;;;;4178168;28;20094;-74
2020/12/31 00:56:02;;;;;;;28.35;18.80;;;3.50;99.90;;;;;;4178380;28;20399;-73
2020/12/31 00:58:02;;;;;;;31.67;19.85;;;3.50;99.90;;;;;;4178716;28;20383;-74
2020/12/31 01:00:07;;;;;;;27.05;18.85;;;3.40;99.90;;;;;;4178655;28;20092;-73
2020/12/31 01:02:09;;;;;;;23.80;17.65;;;3.50;99.90;;;;;;4178740;28;20112;-73
2020/12/31 01:04:10;;;;;;;24.50;17.37;;;3.50;99.90;;;;;;4161308;28;20036;-72
2020/12/31 01:06:10;;;;;;;27.40;17.52;;;3.50;99.90;;;;;;4179446;28;20384;-73
2020/12/31 01:08:11;;;;;;;25.25;17.30;;;3.50;99.90;;;;;;4179260;28;20044;-73
2020/12/31 01:10:13;;;;;;;24.42;16.92;;;3.40;99.90;;;;;;4173469;28;20391;-73
2020/12/31 01:12:13;;;;;;;23.00;16.60;;;3.40;99.90;;;;;;4162894;28;20025;-73
2020/12/31 01:14:14;;;;;;;26.15;17.13;;;3.50;99.90;;;;;;4155332;28;20124;-73
2020/12/31 01:16:14;;;;;;;27.80;19.35;;;3.50;99.90;;;;;;4179386;28;20029;-73
2020/12/31 01:18:15;;;;;;;23.80;18.02;;;3.40;99.90;;;;;;4161467;28;20112;-72
2020/12/31 01:20:16;;;;;;;25.08;17.67;;;3.50;99.90;;;;;;4179554;28;20045;-72
2020/12/31 01:22:16;;;;;;;25.98;18.38;;;3.50;99.90;;;;;;4179456;28;20048;-74
2020/12/31 01:24:17;;;;;;;23.05;18.15;;;3.40;99.90;;;;;;4179445;28;20025;-74
2020/12/31 01:26:32;;;;;;;25.77;17.25;;;3.40;99.90;;;;;;4179314;28;20036;-71
2020/12/31 01:28:33;;;;;;;29.17;19.33;;;3.40;99.90;;;;;;4161614;28;20056;-72
2020/12/31 01:30:33;;;;;;;25.35;17.42;;;3.40;99.90;;;;;;4179152;28;20029;-72
2020/12/31 01:32:34;;;;;;;24.42;18.00;;;3.40;99.90;;;;;;4161715;28;20088;-73
2020/12/31 01:34:35;;;;;;;25.77;17.75;;;3.30;99.90;;;;;;4179428;28;20033;-72
2020/12/31 01:36:36;;;;;;;30.67;18.55;;;3.30;99.90;;;;;;4161689;28;20056;-72
2020/12/31 01:38:36;;;;;;;27.83;19.52;;;3.30;99.90;;;;;;4178840;28;20033;-72
2020/12/31 01:40:37;;;;;;;31.83;19.88;;;3.30;99.90;;;;;;4179203;28;20392;-72
2020/12/31 01:42:42;;;;;;;31.13;20.05;;;3.30;99.90;;;;;;4179403;28;20120;-73
2020/12/31 01:44:43;;;;;;;27.08;19.00;;;3.30;99.90;;;;;;4155843;28;20037;-72
2020/12/31 01:46:48;;;;;;;28.67;19.33;;;3.30;99.90;;;;;;4162006;28;20033;-72
2020/12/31 01:48:48;;;;;;;30.38;19.83;;;3.50;99.90;;;;;;4160538;28;20424;-72
2020/12/31 01:50:49;;;;;;;30.27;20.58;;;3.20;99.90;;;;;;4178731;28;20048;-73
2020/12/31 01:52:50;;;;;;;29.75;18.40;;;3.30;99.90;;;;;;4161723;28;20060;-72
2020/12/31 01:54:51;;;;;;;28.42;19.25;;;3.30;99.90;;;;;;4179364;28;20052;-72
2020/12/31 01:56:58;;;;;;;26.02;17.80;;;3.20;99.90;;;;;;4179031;28;20029;-72
2020/12/31 01:58:59;;;;;;;33.72;19.10;;;3.20;99.90;;;;;;4179370;28;20036;-72
2020/12/31 02:01:01;;;;;;;24.92;19.38;;;3.30;99.90;;;;;;4179136;28;20029;-72
2020/12/31 02:03:02;;;;;;;25.45;17.83;;;3.20;99.90;;;;;;4178697;28;20028;-72
2020/12/31 02:05:03;;;;;;;27.20;19.05;;;3.20;99.90;;;;;;4161328;28;20436;-72
2020/12/31 02:07:04;;;;;;;26.35;17.08;;;3.20;99.90;;;;;;4179213;28;20029;-72
2020/12/31 02:09:06;;;;;;;23.98;17.67;;;3.20;99.90;;;;;;4179190;28;20036;-72
2020/12/31 02:11:06;;;;;;;28.77;18.52;;;4.00;99.90;;;;;;4179032;28;20029;-72
2020/12/31 02:13:07;;;;;;;22.27;14.02;;;3.20;99.90;;;;;;4178672;28;20435;-72
2020/12/31 02:15:12;;;;;;;23.40;16.90;;;3.20;99.90;;;;;;4161283;28;20112;-72
2020/12/31 02:17:13;;;;;;;24.90;16.27;;;3.20;99.90;;;;;;4161234;28;20034;-72
2020/12/31 02:19:16;;;;;;;24.90;17.38;;;3.10;99.90;;;;;;4179404;28;20068;-72
2020/12/31 02:21:23;;;;;;;30.30;16.07;;;3.10;99.90;;;;;;4164427;28;20723;-73
2020/12/31 02:23:24;;;;;;;23.30;16.10;;;3.10;99.90;;;;;;4164517;28;20037;-72
2020/12/31 02:25:24;;;;;;;23.08;15.57;;;3.20;99.90;;;;;;4182268;28;20431;-72
2020/12/31 02:27:25;;;;;;;24.80;16.75;;;3.10;99.90;;;;;;4164509;28;20033;-72
2020/12/31 02:29:26;;;;;;;26.90;17.95;;;3.10;99.90;;;;;;4181507;28;20040;-72
2020/12/31 02:31:27;;;;;;;26.70;16.85;;;3.10;99.90;;;;;;4161696;28;20025;-72
2020/12/31 02:33:28;;;;;;;25.40;17.52;;;3.10;99.90;;;;;;4180268;28;20033;-72
2020/12/31 02:35:29;;;;;;;22.55;16.45;;;3.10;99.90;;;;;;4173145;28;20033;-72
2020/12/31 02:37:29;;;;;;;21.42;14.18;;;3.10;99.90;;;;;;4170701;28;20069;-72
2020/12/31 02:39:30;;;;;;;23.83;15.63;;;3.10;99.90;;;;;;4171225;28;20388;-71
2020/12/31 02:41:31;;;;;;;26.17;17.10;;;3.10;99.90;;;;;;4154876;28;20136;-72
2020/12/31 02:43:34;;;;;;;26.15;16.70;;;3.10;99.90;;;;;;4167363;28;20120;-72
2020/12/31 02:45:34;;;;;;;23.20;16.05;;;3.10;99.90;;;;;;4152580;28;20524;-72
2020/12/31 02:47:39;;;;;;;28.25;16.77;;;3.10;99.90;;;;;;4166925;28;20033;-72
2020/12/31 02:49:39;;;;;;;25.52;16.60;;;3.10;99.90;;;;;;4166238;28;20033;-72
2020/12/31 02:51:40;;;;;;;26.35;16.80;;;3.10;99.90;;;;;;4151171;28;20041;-72
2020/12/31 02:53:41;;;;;;;30.73;17.15;;;3.10;99.90;;;;;;4168125;28;20034;-73
2020/12/31 02:55:41;;;;;;;22.02;15.48;;;3.10;99.90;;;;;;4149238;28;20085;-72
2020/12/31 02:57:42;;;;;;;24.50;15.98;;;3.10;99.90;;;;;;4168164;28;20037;-72
2020/12/31 02:59:42;;;;;;;24.98;16.52;;;3.10;99.90;;;;;;4171177;28;20440;-72
2020/12/31 03:01:43;;;;;;;24.08;16.25;;;3.00;99.90;;;;;;4167068;28;20162;-72
2020/12/31 03:03:43;;;;;;;22.85;16.17;;;3.10;99.90;;;;;;4150796;28;20052;-72
2020/12/31 03:05:44;;;;;;;24.35;15.38;;;3.10;99.90;;;;;;4171072;28;20029;-72
2020/12/31 03:07:45;;;;;;;26.35;16.65;;;3.10;99.90;;;;;;4166365;28;20032;-72
2020/12/31 03:09:46;;;;;;;25.83;15.70;;;3.10;99.90;;;;;;4166812;28;20018;-72
2020/12/31 03:11:47;;;;;;;24.40;14.65;;;3.10;99.90;;;;;;4147570;28;20385;-72
2020/12/31 03:13:48;;;;;;;23.77;15.45;;;3.10;99.90;;;;;;4166754;28;20044;-72
2020/12/31 03:15:53;;;;;;;23.98;14.85;;;3.10;99.90;;;;;;4152856;28;20045;-72
2020/12/31 03:17:54;;;;;;;23.90;15.95;;;3.10;99.90;;;;;;4168580;28;20030;-72
2020/12/31 03:19:55;;;;;;;26.00;16.60;;;3.00;99.90;;;;;;4169265;28;20112;-72
2020/12/31 03:21:55;;;;;;;22.23;15.10;;;3.00;99.90;;;;;;4168513;28;20033;-72
2020/12/31 03:23:56;;;;;;;22.58;15.40;;;3.00;99.90;;;;;;4167383;28;20025;-72
2020/12/31 03:25:56;;;;;;;25.17;15.02;;;3.00;99.90;;;;;;4168287;28;20027;-72
2020/12/31 03:27:57;;;;;;;23.27;15.38;;;3.00;99.90;;;;;;4167117;28;20025;-73
2020/12/31 03:29:58;;;;;;;23.58;15.25;;;3.00;99.90;;;;;;4149184;28;20044;-73
2020/12/31 03:31:59;;;;;;;25.20;17.60;;;3.00;99.90;;;;;;4166106;28;20420;-72
2020/12/31 03:33:59;;;;;;;24.23;16.83;;;3.00;99.90;;;;;;4166701;28;20033;-72
2020/12/31 03:36:00;;;;;;;25.13;16.67;;;3.00;99.90;;;;;;4178806;28;20032;-73
2020/12/31 03:38:00;;;;;;;26.27;17.08;;;3.00;99.90;;;;;;4179975;28;20032;-73
2020/12/31 03:40:01;;;;;;;24.27;16.25;;;3.00;99.90;;;;;;4180552;28;20028;-73
2020/12/31 03:42:02;;;;;;;24.65;16.45;;;3.00;99.90;;;;;;4162653;28;20380;-72
2020/12/31 03:44:03;;;;;;;25.25;15.75;;;3.00;99.90;;;;;;4179599;28;20074;-72
2020/12/31 03:46:03;;;;;;;23.15;16.23;;;3.00;99.90;;;;;;4179531;28;20395;-72
2020/12/31 03:48:04;;;;;;;25.42;16.02;;;3.10;99.90;;;;;;4179448;28;20021;-72
2020/12/31 03:50:06;;;;;;;23.73;16.15;;;3.10;99.90;;;;;;4179361;28;20043;-72
2020/12/31 03:52:06;;;;;;;27.63;16.75;;;3.10;99.90;;;;;;4180469;28;20028;-72
2020/12/31 03:54:07;;;;;;;25.08;16.33;;;3.10;99.90;;;;;;4180739;28;20528;-72
2020/12/31 03:56:08;;;;;;;24.15;17.85;;;3.10;99.90;;;;;;4180791;28;20056;-72
2020/12/31 03:58:08;;;;;;;26.20;16.15;;;3.10;99.90;;;;;;4162775;28;20029;-72
2020/12/31 04:00:09;;;;;;;23.80;16.15;;;3.10;99.90;;;;;;4177847;28;20492;-72
2020/12/31 04:02:10;;;;;;;22.25;15.18;;;3.10;99.90;;;;;;4174215;28;20017;-72
2020/12/31 04:04:11;;;;;;;23.65;15.82;;;3.10;99.90;;;;;;4161642;28;20061;-72
2020/12/31 04:06:13;;;;;;;24.25;15.48;;;3.10;99.90;;;;;;4179614;28;20075;-72
2020/12/31 04:08:14;;;;;;;25.10;15.85;;;3.10;99.90;;;;;;4179411;28;20013;-72
2020/12/31 04:10:14;;;;;;;20.20;14.27;;;3.10;99.90;;;;;;4161552;28;20531;-72
2020/12/31 04:12:15;;;;;;;21.25;15.07;;;3.10;99.90;;;;;;4179353;28;20388;-73
2020/12/31 04:14:15;;;;;;;23.25;14.27;;;3.10;99.90;;;;;;4171467;28;20033;-72
2020/12/31 04:16:16;;;;;;;20.65;13.60;;;3.10;99.90;;;;;;4178671;28;20525;-73
2020/12/31 04:18:16;;;;;;;22.10;14.35;;;3.10;99.90;;;;;;4178473;28;20071;-72
2020/12/31 04:20:17;;;;;;;21.08;13.93;;;3.10;99.90;;;;;;4178554;28;20053;-72
2020/12/31 04:22:18;;;;;;;24.67;16.27;;;3.10;99.90;;;;;;4178266;28;20099;-72
2020/12/31 04:24:19;;;;;;;22.88;13.88;;;3.10;99.90;;;;;;4158920;28;20495;-72
2020/12/31 04:26:19;;;;;;;20.08;14.38;;;3.10;99.90;;;;;;4159358;28;20088;-72
2020/12/31 04:28:20;;;;;;;20.67;14.38;;;3.00;99.90;;;;;;4176881;28;20103;-72
2020/12/31 04:30:20;;;;;;;20.33;14.27;;;3.10;99.90;;;;;;4176941;28;20116;-72
2020/12/31 04:32:21;;;;;;;23.60;14.60;;;3.10;99.90;;;;;;4177004;28;20033;-72
2020/12/31 04:34:21;;;;;;;21.27;15.07;;;3.10;99.90;;;;;;4177830;28;20033;-72
2020/12/31 04:36:22;;;;;;;20.15;14.43;;;3.00;99.90;;;;;;4178260;28;20472;-72
2020/12/31 04:38:22;;;;;;;20.20;14.85;;;3.10;99.90;;;;;;4179156;28;20032;-72
2020/12/31 04:40:23;;;;;;;20.83;14.32;;;3.10;99.90;;;;;;4180173;28;20384;-72
2020/12/31 04:42:33;;;;;;;19.08;14.02;;;3.10;99.90;;;;;;4178485;28;20121;-72
2020/12/31 04:44:35;;;;;;;18.92;14.18;;;3.00;99.90;;;;;;4160633;28;20440;-72
2020/12/31 04:46:38;;;;;;;19.40;13.88;;;3.10;99.90;;;;;;4178505;28;20033;-72
2020/12/31 04:48:40;;;;;;;;;;;3.00;99.90;;;;;;4178852;28;20059;-71
2020/12/31 04:50:42;;;;;;;23.80;15.15;;;3.00;99.90;;;;;;4159963;28;20032;-72
2020/12/31 04:52:43;;;;;;;20.48;15.13;;;3.00;99.90;;;;;;4160474;28;20179;-72
2020/12/31 04:54:44;;;;;;;24.45;14.80;;;3.00;99.90;;;;;;4177918;28;20037;-71
2020/12/31 04:56:46;;;;;;;23.58;13.77;;;3.00;99.90;;;;;;4178148;28;20036;-72
2020/12/31 04:58:47;;;;;;;19.73;13.68;;;3.00;99.90;;;;;;4179283;28;20055;-73
2020/12/31 05:00:48;;;;;;;23.98;14.65;;;3.00;99.90;;;;;;4179703;28;20037;-72
2020/12/31 05:02:57;;;;;;;23.42;14.40;;;2.90;99.90;;;;;;4179828;28;20036;-72
2020/12/31 05:05:00;;;;;;;20.98;13.48;;;3.00;99.90;;;;;;4179878;28;20107;-72
2020/12/31 05:07:00;;;;;;;21.17;14.95;;;3.00;99.90;;;;;;4179492;28;20029;-72
2020/12/31 05:09:27;;;;;;;25.67;13.90;;;2.90;99.90;;;;;;4168146;28;20056;-73
2020/12/31 05:11:44;;;;;;;21.25;14.48;;;2.90;99.90;;;;;;4176888;28;20411;-72
2020/12/31 05:13:50;;;;;;;21.73;14.63;;;2.90;99.90;;;;;;4179375;28;20067;-73
2020/12/31 05:15:50;;;;;;;20.98;14.52;;;2.90;99.90;;;;;;4179211;28;20511;-72
2020/12/31 05:17:51;;;;;;;22.02;15.05;;;2.90;99.90;;;;;;4179169;28;20029;-72
2020/12/31 05:19:52;;;;;;;24.13;16.92;;;2.90;99.90;;;;;;4179594;28;20373;-73
2020/12/31 05:22:13;;;;;;;22.50;16.02;;;2.80;99.90;;;;;;4179525;28;20052;-73
2020/12/31 05:24:14;;;;;;;23.02;15.45;;;2.80;99.90;;;;;;4161517;28;20049;-72
2020/12/31 05:26:35;;;;;;;24.00;15.57;;;2.80;99.90;;;;;;4161362;28;20037;-72
2020/12/31 05:28:37;;;;;;;26.73;16.27;;;2.70;99.90;;;;;;4179175;28;20041;-72
2020/12/31 05:30:41;;;;;;;24.15;15.70;;;2.70;99.90;;;;;;4179383;28;20025;-72
2020/12/31 05:32:41;;;;;;;22.35;14.35;;;2.70;99.90;;;;;;4161491;28;20053;-72
2020/12/31 05:34:42;;;;;;;29.13;17.48;;;2.70;99.90;;;;;;4161520;28;20034;-73
2020/12/31 05:36:42;;;;;;;25.98;15.43;;;2.70;99.90;;;;;;4161546;28;20034;-72
2020/12/31 05:38:49;;;;;;;24.90;15.57;;;2.70;99.90;;;;;;4179322;28;20426;-72
2020/12/31 05:41:00;;;;;;;28.77;15.13;;;2.70;99.90;;;;;;4179312;28;20017;-72
2020/12/31 05:43:00;;;;;;;23.83;14.43;;;2.70;99.90;;;;;;4179221;28;20477;-73
2020/12/31 05:45:15;;;;;;;24.33;15.60;;;2.80;99.90;;;;;;4178900;28;20112;-74
2020/12/31 05:47:19;;;;;;;23.00;14.95;;;2.70;99.90;;;;;;4177253;28;20192;-73
2020/12/31 05:49:29;;;;;;;24.38;14.60;;;2.70;99.90;;;;;;4178243;28;20029;-73
2020/12/31 05:51:35;;;;;;;24.13;16.05;;;2.70;99.90;;;;;;4160137;28;20049;-73
2020/12/31 05:53:35;;;;;;;24.92;15.32;;;2.80;99.90;;;;;;4178550;28;20048;-73
2020/12/31 05:55:38;;;;;;;24.85;15.15;;;2.80;99.90;;;;;;4181937;28;20032;-73
2020/12/31 05:57:50;;;;;;;19.67;13.80;;;2.80;99.90;;;;;;4182680;28;20040;-73
2020/12/31 05:59:54;;;;;;;19.10;12.95;;;2.80;99.90;;;;;;4163306;28;20129;-73
2020/12/31 06:02:00;;;;;;;19.45;14.15;;;2.80;99.90;;;;;;4178601;28;20072;-73
2020/12/31 06:04:20;;;;;;;19.52;12.85;;;2.90;99.90;;;;;;4169527;28;20055;-74
2020/12/31 06:06:22;;;;;;;20.23;13.15;;;2.90;99.90;;;;;;4163974;28;20033;-73
2020/12/31 06:08:29;;;;;;;18.85;12.90;;;2.90;99.90;;;;;;4182315;28;20032;-73
2020/12/31 06:10:31;;;;;;;15.75;12.13;;;2.90;99.90;;;;;;4181582;28;20028;-73
2020/12/31 06:13:02;;;;;;;17.33;11.40;;;2.90;99.90;;;;;;4181714;28;20025;-73
2020/12/31 06:15:08;;;;;;;15.45;11.80;;;2.90;99.90;;;;;;4167173;28;20544;-72
2020/12/31 06:17:19;;;;;;;18.38;12.15;;;2.90;99.90;;;;;;4182199;28;20029;-73
2020/12/31 06:19:33;;;;;;;18.25;12.15;;;2.90;99.90;;;;;;4164187;28;20029;-73
2020/12/31 06:21:41;;;;;;;15.82;11.90;;;2.90;99.90;;;;;;4157980;28;20026;-74
2020/12/31 06:23:43;;;;;;;16.77;11.68;;;2.90;99.90;;;;;;4164079;28;20029;-72
2020/12/31 06:25:48;;;;;;;21.38;12.35;;;2.90;99.90;;;;;;4181284;28;20099;-72
2020/12/31 06:27:56;;;;;;;18.13;11.20;;;2.90;99.90;;;;;;4162509;28;20105;-73
2020/12/31 06:29:59;;;;;;;16.33;12.00;;;2.90;99.90;;;;;;4169462;28;20124;-73
2020/12/31 06:32:03;;;;;;;17.02;11.10;;;2.90;99.90;;;;;;4162694;28;20068;-73
2020/12/31 06:34:04;;;;;;;16.98;10.98;;;2.80;99.90;;;;;;4163845;28;20164;-73
2020/12/31 06:36:05;;;;;;;17.75;11.30;;;2.90;99.90;;;;;;4182116;28;20114;-73
2020/12/31 06:38:08;;;;;;;17.23;11.77;;;2.90;99.90;;;;;;4169222;28;20438;-73
2020/12/31 06:40:23;;;;;;;15.70;11.15;;;2.80;99.90;;;;;;4181870;28;20025;-73
2020/12/31 06:42:23;;;;;;;16.50;11.52;;;2.80;99.90;;;;;;4182055;28;20472;-73
2020/12/31 06:44:29;;;;;;;16.30;11.23;;;2.80;99.90;;;;;;4164051;28;20029;-73
2020/12/31 06:46:41;;;;;;;17.63;10.90;;;2.80;99.90;;;;;;4164144;28;20021;-73
2020/12/31 06:48:42;;;;;;;15.23;11.48;;;2.80;99.90;;;;;;4158315;28;20393;-73
2020/12/31 06:50:55;;;;;;;15.50;11.00;;;2.70;99.90;;;;;;4180896;28;20094;-73
2020/12/31 06:52:56;;;;;;;;;;;2.70;99.90;;;;;;4181140;28;20080;-73
2020/12/31 06:54:57;;;;;;;14.07;10.27;;;2.80;99.90;;;;;;4163199;28;19913;-73
2020/12/31 06:56:57;;;;;;;15.45;10.05;;;2.80;99.90;;;;;;4180601;28;20052;-73
2020/12/31 06:58:58;;;;;;;14.48;10.65;;;2.80;99.90;;;;;;4178807;28;20037;-72
2020/12/31 07:00:59;;;;;;;14.65;10.60;;;2.80;99.90;;;;;;4180587;28;20095;-73
2020/12/31 07:03:00;;;;;;;15.80;10.35;;;2.80;99.90;;;;;;4162863;28;20040;-72
2020/12/31 07:05:19;;;;;;;13.35;10.48;;;2.80;99.90;;;;;;4180206;28;20451;-73
2020/12/31 07:07:19;;;;;;;17.30;10.95;;;2.80;99.90;;;;;;4170662;28;20037;-72
2020/12/31 07:09:32;;;;;;;15.20;10.63;;;2.80;99.90;;;;;;4152273;28;20038;-73
2020/12/31 07:11:38;;;;;;;14.32;10.02;;;2.80;99.90;;;;;;4169349;28;20025;-73
2020/12/31 07:13:41;;;;;;;15.50;10.43;;;2.80;99.90;;;;;;4150919;28;20037;-73
2020/12/31 07:15:41;;;;;;;13.63;10.10;;;2.90;99.90;;;;;;4172154;28;20055;-73
2020/12/31 07:17:46;;;;;;;14.40;9.48;;;2.80;99.90;;;;;;4173254;28;20034;-73
2020/12/31 07:19:47;;;;;;;13.73;9.73;;;2.90;99.90;;;;;;4170560;28;20034;-73
2020/12/31 07:21:50;;;;;;;16.45;10.88;;;2.90;99.90;;;;;;4158125;28;20087;-73
2020/12/31 07:23:51;;;;;;;13.32;9.88;;;2.90;99.90;;;;;;4161906;28;20068;-73
2020/12/31 07:26:02;;;;;;;16.67;10.70;;;2.90;99.90;;;;;;4179909;28;20029;-74
2020/12/31 07:28:03;;;;;;;11.88;9.63;;;2.90;99.90;;;;;;4178130;28;20024;-74
2020/12/31 07:30:11;;;;;;;11.70;8.75;;;2.80;99.90;;;;;;4180200;28;20484;-73
2020/12/31 07:32:12;;;;;;;13.38;9.20;;;2.80;99.90;;;;;;4180140;28;20021;-74
2020/12/31 07:34:20;;;;;;;13.15;9.75;;;2.80;99.90;;;;;;4180114;28;20459;-73
2020/12/31 07:36:20;;;;;;;13.15;8.40;;;2.80;99.90;;;;;;4161537;28;20026;-73
2020/12/31 07:38:21;;;;;;;14.35;8.73;;;2.80;99.90;;;;;;4179215;28;20055;-73
2020/12/31 07:40:48;;;;;;;11.05;8.43;;;2.80;99.90;;;;;;4178881;28;20056;-74
2020/12/31 07:42:50;;;;;;;12.93;8.98;;;2.70;99.90;;;;;;4166642;28;20021;-73
2020/12/31 07:44:53;;;;;;;15.25;9.50;;;2.70;99.90;;;;;;4179153;28;20017;-73
2020/12/31 07:46:56;;;;;;;12.40;8.50;;;2.60;99.90;;;;;;4169219;28;20488;-74
2020/12/31 07:48:56;;;;;;;12.20;9.52;;;2.60;99.90;;;;;;4169338;28;20032;-74
2020/12/31 07:50:59;;;;;;;12.32;8.68;;;2.60;99.90;;;;;;4159616;28;568803;-72
2020/12/31 07:53:00;;;;;;;12.13;8.77;;;2.60;99.90;;;;;;4170806;28;20037;-73
2020/12/31 07:55:03;;;;;;;13.40;9.63;;;2.60;99.90;;;;;;4156357;28;20037;-74
2020/12/31 07:57:05;;;;;;;;;;;2.60;99.90;;;;;;4180554;28;20132;-72
2020/12/31 07:59:06;;;;;;;12.43;9.23;;;2.60;99.90;;;;;;4178302;28;19954;-73
2020/12/31 08:01:07;;;;;;;12.75;9.00;;;2.60;99.90;;;;;;4175332;28;20480;-73
2020/12/31 08:03:09;;;;;;;14.05;9.57;;;2.70;99.90;;;;;;4171110;28;20449;-73
2020/12/31 08:05:11;;;;;;;12.32;10.07;;;2.70;99.90;;;;;;4167389;28;20044;-73
2020/12/31 08:07:18;;;;;;;14.35;10.10;;;2.70;99.90;;;;;;4168907;28;20074;-72
2020/12/31 08:09:24;;;;;;;13.63;9.88;;;2.70;99.90;;;;;;4170294;28;20044;-73
2020/12/31 08:11:26;;;;;;;13.90;11.07;;;2.80;99.90;;;;;;4180511;28;20033;-73
2020/12/31 08:13:27;;;;;;;15.50;10.52;;;2.80;99.90;;;;;;4176772;28;20129;-72
2020/12/31 08:15:29;;;;;;;16.65;12.20;;;2.80;99.90;;;;;;4171841;28;20063;-72
2020/12/31 08:17:29;;;;;;;18.00;11.98;;;2.80;99.90;;;;;;4173927;28;20427;-73
2020/12/31 08:19:30;;;;;;;15.45;11.45;;;2.80;99.90;;;;;;4158738;28;20056;-73
2020/12/31 08:21:33;;;;;;;16.13;11.50;;;2.80;99.90;;;;;;4177056;28;20025;-73
2020/12/31 08:23:39;;;;;;;14.82;10.82;;;2.80;99.90;;;;;;4159083;28;20052;-73
2020/12/31 08:25:42;;;;;;;16.35;11.02;;;2.80;99.90;;;;;;4160958;28;20030;-73
2020/12/31 08:27:43;;;;;;;17.17;11.40;;;2.80;99.90;;;;;;4177908;28;20099;-74
2020/12/31 08:29:45;;;;;;;14.63;11.23;;;2.80;99.90;;;;;;4178290;28;20037;-73
2020/12/31 08:31:52;;;;;;;15.10;11.70;;;2.80;99.90;;;;;;4178826;28;20032;-74
2020/12/31 08:33:59;;;;;;;19.27;11.70;;;2.90;99.90;;;;;;4173503;28;20040;-72
2020/12/31 08:36:02;;;;;;;17.85;12.82;;;2.90;99.90;;;;;;4174433;28;20052;-75
2020/12/31 08:38:05;;;;;;;17.90;11.73;;;2.90;99.90;;;;;;4168123;28;20528;-74
2020/12/31 08:40:06;;;;;;;17.15;11.73;;;2.90;99.90;;;;;;4178204;28;20055;-73
2020/12/31 08:42:10;;;;;;;16.90;11.52;;;2.90;99.90;;;;;;4177986;28;20464;-73
2020/12/31 08:44:18;;;;;;;15.15;10.77;;;2.90;99.90;;;;;;4172623;28;20025;-74
2020/12/31 08:46:21;;;;;;;14.02;10.65;;;2.90;99.90;;;;;;4170901;28;20492;-73
2020/12/31 08:48:24;;;;;;;14.45;9.48;;;2.90;99.90;;;;;;4168321;28;20048;-73
2020/12/31 08:50:24;;;;;;;14.20;9.75;;;2.90;99.90;;;;;;4150198;28;20092;-72
2020/12/31 08:52:27;;;;;;;12.43;9.10;;;2.90;99.90;;;;;;4166369;28;20117;-73
2020/12/31 08:54:27;;;;;;;11.40;8.70;;;2.90;99.90;;;;;;4150472;28;20046;-73
2020/12/31 08:56:32;;;;;;;11.80;8.15;;;2.90;99.90;;;;;;4169879;28;20040;-73
2020/12/31 08:58:33;;;;;;;10.85;8.25;;;2.90;99.90;;;;;;4178584;28;20025;-73
2020/12/31 09:00:36;;;;;;;9.77;8.15;;;2.90;99.90;;;;;;4160411;28;20425;-73
2020/12/31 09:02:37;;;;;;;18.92;7.90;;;2.90;99.90;;;;;;4179180;28;20041;-73
2020/12/31 09:04:38;;;;;;;10.75;6.57;;;2.90;99.90;;;;;;4177101;28;20040;-73
2020/12/31 09:06:42;;;;;;;8.48;6.60;;;2.90;99.90;;;;;;4175868;28;20032;-73
2020/12/31 09:08:52;;;;;;;9.02;6.43;;;2.90;99.90;;;;;;4178833;28;20029;-73
2020/12/31 09:11:05;;;;;;;7.80;6.05;;;2.90;99.90;;;;;;4174781;28;20595;-73
2020/12/31 09:13:05;;;;;;;7.72;5.55;;;2.90;99.90;;;;;;4167375;28;20384;-73
2020/12/31 09:15:06;;;;;;;11.10;6.00;;;3.00;99.90;;;;;;4155806;28;20037;-73
2020/12/31 09:17:25;;;;;;;9.82;5.38;;;3.00;99.90;;;;;;4160348;28;20021;-73
2020/12/31 09:19:26;;;;;;;9.00;5.85;;;3.00;99.90;;;;;;4176160;28;20112;-73
2020/12/31 09:21:28;;;;;;;7.72;5.85;;;3.00;99.90;;;;;;4173581;28;20105;-73
2020/12/31 09:23:29;;;;;;;11.55;6.63;;;3.00;99.90;;;;;;4179125;28;20033;-73
2020/12/31 09:25:30;;;;;;;8.00;5.32;;;3.00;99.90;;;;;;4177575;28;20036;-74
2020/12/31 09:27:30;;;;;;;8.65;5.00;;;3.10;99.90;;;;;;4160286;28;20083;-74
2020/12/31 09:29:31;;;;;;;7.90;5.22;;;3.10;99.90;;;;;;4177914;28;20032;-74
2020/12/31 09:31:35;;;;;;;7.80;5.47;;;3.10;99.90;;;;;;4159969;28;20087;-74
2020/12/31 09:33:35;;;;;;;8.30;5.70;;;3.10;99.90;;;;;;4177819;28;20070;-74
2020/12/31 09:35:36;;;;;;;8.40;5.63;;;3.20;99.90;;;;;;4177616;28;20017;-74
2020/12/31 09:37:57;;;;;;;6.03;5.43;;;3.20;99.90;;;;;;4160139;28;20072;-75
2020/12/31 09:39:57;;;;;;;7.15;5.20;;;3.30;99.90;;;;;;4174184;28;20040;-73
2020/12/31 09:41:58;;;;;;;9.32;5.65;;;3.30;99.90;;;;;;4161524;28;20029;-73
2020/12/31 09:43:59;;;;;;;7.72;5.43;;;3.30;99.90;;;;;;4160366;28;20557;-74
2020/12/31 09:46:00;;;;;;;10.80;7.35;;;3.30;99.90;;;;;;4176639;28;20029;-73
2020/12/31 09:48:01;;;;;;;9.50;6.38;;;3.30;99.90;;;;;;4177799;28;20090;-73
2020/12/31 09:50:03;;;;;;;12.00;8.45;;;3.40;99.90;;;;;;4177773;28;20065;-73
2020/12/31 09:52:03;;;;;;;12.95;8.63;;;3.40;99.90;;;;;;4178429;28;20025;-74
2020/12/31 09:54:04;;;;;;;12.32;8.52;;;3.40;99.90;;;;;;4159726;28;20045;-74
2020/12/31 09:56:04;;;;;;;10.63;6.97;;;3.40;99.90;;;;;;4177749;28;20112;-73
2020/12/31 09:58:05;;;;;;;7.88;6.10;;;3.40;99.90;;;;;;4176776;28;20025;-74
2020/12/31 10:00:06;;;;;;;8.48;5.60;;;3.40;99.90;;;;;;4179409;28;20025;-73
2020/12/31 10:02:06;;;;;;;11.07;6.40;;;3.40;99.90;;;;;;4177354;28;20029;-73
2020/12/31 10:04:07;;;;;;;13.35;6.32;;;3.40;99.90;;;;;;4178773;28;20021;-73
2020/12/31 10:06:08;;;;;;;12.02;6.38;;;3.50;99.90;;;;;;4159732;28;20072;-73
2020/12/31 10:08:08;;;;;;;8.73;6.53;;;3.50;99.90;;;;;;4141379;28;20030;-74
2020/12/31 10:10:09;;;;;;;8.98;6.28;;;3.50;99.90;;;;;;4162235;28;20049;-74
2020/12/31 10:12:13;;;;;;;9.88;6.60;;;3.50;99.90;;;;;;4162001;28;20083;-74
2020/12/31 10:14:14;;;;;;;8.32;6.03;;;3.60;99.90;;;;;;4144337;28;20026;-73
2020/12/31 10:16:15;;;;;;;9.13;5.78;;;3.60;99.90;;;;;;4143015;28;20041;-73
2020/12/31 10:18:16;;;;;;;9.73;6.03;;;3.60;99.90;;;;;;4160226;28;20381;-74
2020/12/31 10:20:16;;;;;;;9.20;6.25;;;3.60;99.90;;;;;;4160407;28;20030;-73
2020/12/31 10:22:17;;;;;;;9.27;6.00;;;3.60;99.90;;;;;;4143055;28;20041;-73
2020/12/31 10:24:18;;;;;;;7.95;6.25;;;3.60;99.90;;;;;;4160854;28;20040;-74
2020/12/31 10:26:20;;;;;;;7.47;6.38;;;3.60;99.90;;;;;;4162486;28;20028;-74
2020/12/31 10:28:21;;;;;;;10.30;6.85;;;3.50;99.90;;;;;;4177268;28;20510;-74
2020/12/31 10:30:22;;;;;;;9.30;6.35;;;3.60;99.90;;;;;;4177372;28;20029;-73
2020/12/31 10:32:22;;;;;;;10.48;6.35;;;3.60;99.90;;;;;;4179168;28;20018;-73
2020/12/31 10:34:24;;;;;;;8.93;7.05;;;3.60;99.90;;;;;;4178563;28;20361;-74